createdAt,value
2018-06-17T00:01:15.790Z,8.97
2018-06-17T00:03:44.638Z,8.17
2018-06-17T00:06:13.446Z,8.13
2018-06-17T00:08:41.825Z,7.53
2018-06-17T00:11:10.558Z,9.27
2018-06-17T00:13:39.371Z,9.43
2018-06-17T00:16:08.090Z,9.50
2018-06-17T00:18:36.922Z,7.97
2018-06-17T00:21:05.618Z,9.57
2018-06-17T00:23:34.338Z,9.87
2018-06-17T00:26:03.204Z,9.57
2018-06-17T00:28:32.045Z,9.50
2018-06-17T00:31:00.795Z,8.70
2018-06-17T00:33:29.617Z,9.33
2018-06-17T00:35:58.497Z,9.27
2018-06-17T00:38:27.476Z,8.07
2018-06-17T00:40:56.314Z,8.80
2018-06-17T00:43:25.073Z,8.40
2018-06-17T00:45:53.766Z,6.90
2018-06-17T00:48:22.598Z,6.63
2018-06-17T00:50:50.995Z,7.33
2018-06-17T00:53:19.313Z,6.17
2018-06-17T00:55:48.139Z,7.10
2018-06-17T00:58:16.978Z,7.37
2018-06-17T01:00:45.714Z,7.60
2018-06-17T01:03:14.525Z,7.17
2018-06-17T01:05:43.322Z,7.20
2018-06-17T01:08:12.126Z,6.67
2018-06-17T01:10:41.025Z,6.07
2018-06-17T01:13:09.938Z,6.17
2018-06-17T01:15:38.708Z,6.50
2018-06-17T01:18:07.506Z,5.50
2018-06-17T01:20:36.423Z,5.67
2018-06-17T01:23:05.209Z,6.23
2018-06-17T01:25:33.962Z,5.40
2018-06-17T01:28:02.847Z,6.43
2018-06-17T01:30:31.661Z,5.57
2018-06-17T01:33:00.516Z,5.40
2018-06-17T01:35:29.362Z,4.37
2018-06-17T01:37:58.141Z,5.33
2018-06-17T01:40:26.930Z,5.53
2018-06-17T01:42:55.803Z,5.93
2018-06-17T01:45:24.544Z,6.07
2018-06-17T01:47:53.415Z,5.87
2018-06-17T01:50:22.460Z,5.00
2018-06-17T01:52:51.242Z,5.77
2018-06-17T01:55:20.138Z,4.83
2018-06-17T01:57:49.114Z,5.37
2018-06-17T02:00:17.900Z,5.40
2018-06-17T02:02:46.684Z,5.57
2018-06-17T02:05:20.585Z,5.43
2018-06-17T02:07:54.685Z,4.17
2018-06-17T02:10:28.286Z,4.97
2018-06-17T02:12:57.050Z,5.00
2018-06-17T02:15:25.966Z,5.20
2018-06-17T02:17:54.861Z,4.67
2018-06-17T02:20:23.674Z,4.20
2018-06-17T02:22:52.558Z,4.60
2018-06-17T02:25:21.358Z,3.90
2018-06-17T02:27:50.327Z,3.90
2018-06-17T02:30:19.248Z,3.63
2018-06-17T02:32:47.734Z,4.10
2018-06-17T02:35:16.720Z,4.30
2018-06-17T02:37:45.716Z,4.10
2018-06-17T02:40:14.750Z,4.37
2018-06-17T02:42:43.586Z,4.67
2018-06-17T02:45:17.422Z,4.37
2018-06-17T02:47:51.538Z,4.40
2018-06-17T02:50:25.603Z,4.20
2018-06-17T02:52:59.846Z,4.40
2018-06-17T02:55:28.711Z,3.57
2018-06-17T02:57:57.393Z,3.37
2018-06-17T03:00:26.345Z,3.40
2018-06-17T03:02:55.184Z,3.90
2018-06-17T03:05:24.015Z,3.80
2018-06-17T03:07:52.753Z,3.90
2018-06-17T03:10:21.649Z,4.47
2018-06-17T03:12:50.421Z,4.03
2018-06-17T03:15:19.329Z,3.60
2018-06-17T03:17:48.112Z,3.60
2018-06-17T03:20:16.819Z,3.33
2018-06-17T03:22:45.525Z,3.60
2018-06-17T03:25:19.399Z,3.80
2018-06-17T03:27:53.333Z,3.60
2018-06-17T03:30:27.234Z,3.97
2018-06-17T03:33:01.130Z,4.30
2018-06-17T03:35:35.010Z,3.67
2018-06-17T03:38:03.753Z,3.57
2018-06-17T03:40:32.531Z,3.63
2018-06-17T03:43:01.430Z,4.03
2018-06-17T03:45:30.373Z,3.60
2018-06-17T03:47:59.201Z,3.30
2018-06-17T03:50:28.141Z,3.47
2018-06-17T03:52:56.986Z,3.83
2018-06-17T03:55:25.728Z,4.53
2018-06-17T03:57:54.557Z,3.60
2018-06-17T04:00:23.330Z,3.20
2018-06-17T04:02:52.058Z,3.53
2018-06-17T04:05:25.765Z,3.80
2018-06-17T04:07:54.497Z,3.50
2018-06-17T04:10:23.223Z,3.50
2018-06-17T04:12:51.930Z,3.30
2018-06-17T04:15:20.755Z,3.50
2018-06-17T04:17:49.502Z,3.40
2018-06-17T04:20:18.254Z,3.40
2018-06-17T04:22:46.952Z,3.40
2018-06-17T04:25:15.777Z,3.33
2018-06-17T04:27:44.590Z,3.47
2018-06-17T04:30:13.289Z,2.80
2018-06-17T04:32:41.984Z,2.90
2018-06-17T04:35:10.755Z,2.93
2018-06-17T04:37:39.458Z,3.27
2018-06-17T04:40:08.562Z,3.10
2018-06-17T04:42:37.350Z,4.00
2018-06-17T04:45:06.198Z,3.60
2018-06-17T04:47:36.300Z,3.33
2018-06-17T04:50:05.089Z,2.60
2018-06-17T04:52:34.090Z,3.20
2018-06-17T04:55:02.773Z,3.40
2018-06-17T04:57:31.546Z,3.27
2018-06-17T05:00:00.445Z,2.90
2018-06-17T05:02:29.202Z,3.20
2018-06-17T05:04:57.941Z,3.07
2018-06-17T05:07:26.609Z,2.60
2018-06-17T05:09:56.009Z,2.60
2018-06-17T05:12:24.841Z,3.00
2018-06-17T05:14:53.632Z,3.00
2018-06-17T05:17:22.461Z,2.97
2018-06-17T05:19:51.226Z,2.57
2018-06-17T05:22:19.922Z,2.80
2018-06-17T05:24:48.690Z,2.87
2018-06-17T05:27:17.446Z,2.70
2018-06-17T05:29:46.183Z,3.00
2018-06-17T05:32:14.882Z,2.80
2018-06-17T05:34:43.574Z,2.90
2018-06-17T05:37:12.265Z,3.03
2018-06-17T05:39:40.947Z,2.93
2018-06-17T05:42:09.754Z,2.83
2018-06-17T05:44:38.085Z,2.80
2018-06-17T05:47:06.993Z,2.80
2018-06-17T05:49:35.854Z,2.77
2018-06-17T05:52:04.662Z,2.53
2018-06-17T05:54:33.414Z,2.70
2018-06-17T05:57:02.163Z,2.70
2018-06-17T05:59:30.917Z,2.70
2018-06-17T06:01:59.454Z,2.93
2018-06-17T06:04:28.202Z,2.80
2018-06-17T06:06:56.916Z,3.20
2018-06-17T06:09:25.749Z,3.03
2018-06-17T06:11:54.485Z,2.97
2018-06-17T06:14:23.145Z,3.40
2018-06-17T06:16:51.835Z,3.33
2018-06-17T06:19:20.589Z,4.23
2018-06-17T06:21:49.342Z,4.27
2018-06-17T06:24:18.061Z,4.47
2018-06-17T06:26:46.772Z,5.03
2018-06-17T06:29:15.169Z,4.80
2018-06-17T06:31:43.919Z,4.77
2018-06-17T06:34:12.605Z,5.10
2018-06-17T06:36:41.378Z,5.27
2018-06-17T06:39:10.893Z,5.20
2018-06-17T06:41:39.700Z,5.53
2018-06-17T06:44:08.384Z,5.70
2018-06-17T06:46:37.284Z,5.80
2018-06-17T06:49:06.038Z,6.67
2018-06-17T06:51:35.188Z,6.90
2018-06-17T06:54:03.866Z,7.73
2018-06-17T06:56:32.666Z,8.00
2018-06-17T06:59:01.331Z,8.50
2018-06-17T07:01:41.158Z,9.80
2018-06-17T07:04:20.950Z,10.57
2018-06-17T07:07:00.808Z,10.67
2018-06-17T07:09:40.449Z,10.00
2018-06-17T07:12:09.194Z,10.17
2018-06-17T07:14:38.013Z,9.97
2018-06-17T07:17:17.815Z,9.50
2018-06-17T07:19:46.577Z,9.90
2018-06-17T07:22:15.357Z,8.33
2018-06-17T07:24:44.030Z,8.03
2018-06-17T07:27:23.787Z,7.70
2018-06-17T07:29:52.496Z,7.73
2018-06-17T07:32:21.202Z,8.17
2018-06-17T07:34:49.920Z,7.50
2018-06-17T07:37:18.666Z,9.00
2018-06-17T07:40:51.295Z,8.47
2018-06-17T07:43:20.180Z,8.53
2018-06-17T07:45:48.834Z,9.80
2018-06-17T07:50:29.974Z,9.27
2018-06-17T07:53:09.723Z,8.53
2018-06-17T07:55:38.441Z,8.60
2018-06-17T07:58:07.189Z,7.93
2018-06-17T08:00:35.933Z,6.43
2018-06-17T08:03:04.731Z,2.43
2018-06-17T08:05:33.461Z,0.90
2018-06-17T08:08:02.226Z,0.90
2018-06-17T08:10:30.933Z,0.60
2018-06-17T08:12:59.626Z,0.87
2018-06-17T08:15:28.393Z,0.83
2018-06-17T08:17:57.130Z,1.20
2018-06-17T08:20:25.929Z,1.10
2018-06-17T08:22:54.595Z,1.20
2018-06-17T08:25:23.392Z,1.20
2018-06-17T08:27:52.082Z,1.40
2018-06-17T08:30:20.401Z,1.50
2018-06-17T08:32:49.122Z,1.83
2018-06-17T08:35:17.817Z,1.83
2018-06-17T08:37:46.563Z,1.43
2018-06-17T08:40:15.301Z,1.80
2018-06-17T08:42:44.117Z,1.77
2018-06-17T08:45:12.786Z,1.60
2018-06-17T08:47:41.557Z,1.40
2018-06-17T08:50:10.190Z,1.53
2018-06-17T08:52:38.875Z,1.50
2018-06-17T08:55:07.633Z,0.80
2018-06-17T08:57:36.334Z,0.80
2018-06-17T09:00:05.067Z,1.30
2018-06-17T09:02:33.791Z,1.17
2018-06-17T09:05:02.590Z,1.47
2018-06-17T09:07:31.302Z,1.50
2018-06-17T09:10:00.011Z,1.77
2018-06-17T09:12:28.781Z,1.60
2018-06-17T09:14:57.471Z,1.80
2018-06-17T09:17:26.198Z,1.20
2018-06-17T09:19:54.893Z,1.50
2018-06-17T09:22:23.569Z,1.73
2018-06-17T09:24:52.310Z,2.00
2018-06-17T09:27:21.060Z,2.40
2018-06-17T09:29:49.811Z,2.60
2018-06-17T09:32:18.538Z,2.53
2018-06-17T09:34:47.289Z,2.50
2018-06-17T09:37:15.972Z,2.30
2018-06-17T09:39:44.874Z,2.80
2018-06-17T09:42:13.534Z,2.13
2018-06-17T09:44:42.234Z,1.90
2018-06-17T09:47:10.935Z,1.80
2018-06-17T09:49:39.221Z,1.80
2018-06-17T09:52:07.946Z,2.03
2018-06-17T09:54:36.681Z,2.13
2018-06-17T09:57:05.455Z,2.00
2018-06-17T09:59:34.106Z,2.00
2018-06-17T10:02:02.802Z,1.57
2018-06-17T10:04:31.602Z,1.40
2018-06-17T10:07:00.323Z,1.93
2018-06-17T10:09:29.016Z,1.50
2018-06-17T10:11:57.731Z,1.40
2018-06-17T10:14:26.426Z,1.40
2018-06-17T10:16:55.118Z,1.73
2018-06-17T10:19:23.814Z,1.63
2018-06-17T10:21:52.525Z,1.50
2018-06-17T10:24:21.225Z,1.60
2018-06-17T10:26:49.943Z,1.30
2018-06-17T10:29:18.626Z,1.53
2018-06-17T10:31:47.414Z,1.67
2018-06-17T10:34:16.227Z,1.80
2018-06-17T10:36:44.964Z,1.73
2018-06-17T10:39:13.682Z,1.40
2018-06-17T10:41:42.370Z,1.40
2018-06-17T10:44:11.043Z,1.20
2018-06-17T10:46:39.774Z,1.20
2018-06-17T10:49:08.432Z,1.10
2018-06-17T10:51:37.113Z,1.27
2018-06-17T10:54:05.812Z,1.40
2018-06-17T10:56:34.465Z,1.70
2018-06-17T10:59:03.202Z,1.90
2018-06-17T11:01:31.882Z,1.57
2018-06-17T11:04:00.614Z,1.50
2018-06-17T11:06:29.301Z,2.10
2018-06-17T11:08:58.114Z,1.90
2018-06-17T11:11:26.850Z,2.70
2018-06-17T11:13:55.567Z,2.17
2018-06-17T11:16:24.266Z,2.20
2018-06-17T11:18:53.002Z,4.07
2018-06-17T11:21:21.663Z,4.90
2018-06-17T11:23:50.489Z,5.03
2018-06-17T11:26:19.182Z,5.97
2018-06-17T11:28:47.866Z,5.30
2018-06-17T11:31:16.553Z,5.43
2018-06-17T11:33:45.277Z,6.23
2018-06-17T11:36:14.082Z,6.73
2018-06-17T11:38:42.782Z,6.53
2018-06-17T11:41:11.439Z,6.73
2018-06-17T11:43:40.137Z,5.87
2018-06-17T11:46:08.858Z,5.53
2018-06-17T11:48:37.571Z,5.57
2018-06-17T11:51:06.315Z,5.40
2018-06-17T11:53:35.050Z,5.97
2018-06-17T11:56:03.790Z,5.30
2018-06-17T11:58:32.481Z,6.33
2018-06-17T12:01:01.145Z,5.50
2018-06-17T12:03:29.862Z,5.13
2018-06-17T12:05:58.197Z,4.63
2018-06-17T12:08:27.041Z,4.70
2018-06-17T12:10:55.741Z,4.37
2018-06-17T12:13:24.466Z,4.07
2018-06-17T12:15:53.270Z,4.73
2018-06-17T12:18:22.042Z,4.17
2018-06-17T12:20:50.735Z,3.93
2018-06-17T12:23:19.434Z,4.10
2018-06-17T12:25:48.589Z,4.67
2018-06-17T12:28:17.305Z,4.57
2018-06-17T12:30:46.077Z,4.90
2018-06-17T12:33:14.717Z,5.37
2018-06-17T12:35:43.450Z,4.53
2018-06-17T12:38:12.218Z,4.50
2018-06-17T12:40:40.987Z,3.53
2018-06-17T12:43:09.618Z,2.80
2018-06-17T12:45:38.345Z,1.90
2018-06-17T12:48:07.086Z,1.00
2018-06-17T12:50:35.817Z,1.20
2018-06-17T12:53:04.609Z,1.03
2018-06-17T12:55:33.389Z,0.90
2018-06-17T12:58:02.096Z,1.23
2018-06-17T13:00:30.792Z,1.63
2018-06-17T13:02:59.554Z,1.40
2018-06-17T13:05:28.265Z,1.33
2018-06-17T13:07:57.106Z,1.37
2018-06-17T13:10:25.822Z,1.17
2018-06-17T13:12:54.536Z,1.20
2018-06-17T13:15:23.265Z,1.20
2018-06-17T13:17:51.987Z,1.43
2018-06-17T13:20:20.737Z,1.00
2018-06-17T13:22:49.478Z,0.93
2018-06-17T13:25:18.275Z,1.37
2018-06-17T13:27:46.979Z,1.20
2018-06-17T13:30:15.651Z,1.40
2018-06-17T13:32:44.391Z,1.17
2018-06-17T13:35:13.165Z,1.20
2018-06-17T13:37:41.943Z,1.53
2018-06-17T13:40:10.665Z,1.20
2018-06-17T13:42:39.326Z,1.27
2018-06-17T13:45:08.014Z,1.30
2018-06-17T13:47:36.764Z,1.00
2018-06-17T13:50:05.791Z,0.77
2018-06-17T13:52:34.130Z,0.70
2018-06-17T13:55:03.063Z,0.57
2018-06-17T13:57:31.922Z,0.60
2018-06-17T14:00:00.768Z,0.50
2018-06-17T14:02:29.584Z,0.80
2018-06-17T14:04:58.481Z,0.70
2018-06-17T14:07:54.619Z,0.50
2018-06-17T14:10:41.686Z,0.83
2018-06-17T14:13:10.365Z,0.50
2018-06-17T14:15:39.077Z,0.40
2018-06-17T14:18:25.467Z,0.60
2018-06-17T14:20:54.477Z,0.70
2018-06-17T14:23:23.195Z,0.70
2018-06-17T14:25:51.850Z,0.60
2018-06-17T14:28:20.576Z,0.50
2018-06-17T14:30:49.286Z,0.60
2018-06-17T14:33:17.961Z,0.60
2018-06-17T14:35:46.609Z,0.40
2018-06-17T14:38:15.313Z,0.40
2018-06-17T14:40:49.133Z,0.50
2018-06-17T14:43:23.161Z,0.43
2018-06-17T14:46:01.685Z,0.50
2018-06-17T14:48:35.814Z,0.50
2018-06-17T14:51:09.713Z,0.30
2018-06-17T14:53:38.402Z,0.40
2018-06-17T14:56:07.127Z,0.50
2018-06-17T14:58:35.809Z,0.53
2018-06-17T15:01:04.515Z,0.40
2018-06-17T15:03:33.357Z,0.50
2018-06-17T15:06:02.065Z,0.40
2018-06-17T15:08:30.834Z,0.50
2018-06-17T15:10:59.560Z,0.50
2018-06-17T15:13:28.314Z,0.43
2018-06-17T15:15:57.230Z,0.60
2018-06-17T15:18:26.122Z,0.50
2018-06-17T15:20:54.850Z,0.40
2018-06-17T15:23:23.555Z,0.50
2018-06-17T15:25:52.651Z,0.50
2018-06-17T15:28:21.350Z,0.40
2018-06-17T15:30:50.056Z,0.50
2018-06-17T15:33:23.934Z,0.47
2018-06-17T15:35:57.714Z,0.80
2018-06-17T15:38:31.873Z,0.47
2018-06-17T15:41:05.895Z,0.47
2018-06-17T15:43:34.558Z,0.53
2018-06-17T15:46:03.360Z,0.60
2018-06-17T15:48:32.054Z,0.40
2018-06-17T15:51:00.799Z,0.70
2018-06-17T15:53:29.489Z,0.70
2018-06-17T15:55:58.214Z,0.60
2018-06-17T15:58:27.008Z,0.70
2018-06-17T16:00:55.682Z,0.67
2018-06-17T16:03:24.377Z,0.90
2018-06-17T16:05:53.262Z,0.60
2018-06-17T16:08:21.970Z,0.50
2018-06-17T16:10:50.678Z,0.70
2018-06-17T16:14:25.790Z,0.30
2018-06-17T16:16:59.796Z,0.30
2018-06-17T16:19:33.708Z,0.50
2018-06-17T16:22:02.649Z,0.37
2018-06-17T16:24:31.459Z,0.43
2018-06-17T16:27:00.209Z,0.53
2018-06-17T16:29:28.993Z,0.40
2018-06-17T16:31:57.697Z,0.50
2018-06-17T16:34:26.446Z,1.53
2018-06-17T16:36:55.170Z,0.90
2018-06-17T16:39:23.861Z,0.50
2018-06-17T16:41:52.536Z,0.50
2018-06-17T16:44:21.242Z,0.40
2018-06-17T16:46:50.022Z,0.67
2018-06-17T16:49:18.753Z,0.50
2018-06-17T16:51:52.618Z,0.60
2018-06-17T16:54:26.498Z,0.70
2018-06-17T16:57:00.555Z,0.50
2018-06-17T16:59:34.684Z,0.43
2018-06-17T17:02:03.311Z,0.70
2018-06-17T17:04:32.115Z,0.80
2018-06-17T17:07:00.804Z,0.40
2018-06-17T17:09:29.457Z,0.60
2018-06-17T17:11:58.138Z,0.43
2018-06-17T17:14:26.822Z,0.60
2018-06-17T17:16:55.514Z,0.40
2018-06-17T17:19:24.197Z,0.60
2018-06-17T17:21:52.975Z,0.40
2018-06-17T17:24:22.530Z,0.43
2018-06-17T17:26:51.219Z,0.33
2018-06-17T17:29:19.996Z,0.43
2018-06-17T17:31:53.949Z,0.30
2018-06-17T17:34:27.805Z,0.50
2018-06-17T17:37:01.661Z,0.50
2018-06-17T17:39:36.151Z,0.30
2018-06-17T17:42:05.040Z,0.53
2018-06-17T17:44:39.033Z,0.30
2018-06-17T17:47:12.914Z,0.40
2018-06-17T17:49:41.776Z,0.70
2018-06-17T17:52:11.638Z,0.60
2018-06-17T17:54:40.344Z,0.33
2018-06-17T17:57:09.306Z,0.50
2018-06-17T17:59:38.023Z,0.63
2018-06-17T18:02:07.322Z,0.30
2018-06-17T18:04:36.018Z,0.40
2018-06-17T18:07:04.753Z,0.60
2018-06-17T18:09:33.909Z,0.43
2018-06-17T18:12:02.815Z,0.80
2018-06-17T18:14:31.590Z,0.50
2018-06-17T18:17:00.530Z,0.50
2018-06-17T18:19:29.270Z,0.60
2018-06-17T18:21:58.240Z,0.63
2018-06-17T18:24:27.098Z,0.67
2018-06-17T18:27:01.139Z,0.53
2018-06-17T18:29:35.304Z,0.40
2018-06-17T18:32:09.282Z,0.57
2018-06-17T18:34:43.282Z,0.60
2018-06-17T18:37:12.192Z,0.40
2018-06-17T18:39:40.954Z,0.60
2018-06-17T18:42:09.615Z,0.60
2018-06-17T18:44:38.810Z,0.50
2018-06-17T18:47:07.619Z,0.60
2018-06-17T18:49:36.399Z,0.60
2018-06-17T18:52:05.103Z,0.60
2018-06-17T18:54:33.905Z,0.40
2018-06-17T18:57:02.597Z,0.63
2018-06-17T18:59:31.365Z,0.70
2018-06-17T19:02:00.209Z,0.60
2018-06-17T19:04:29.017Z,0.70
2018-06-17T19:06:57.774Z,0.70
2018-06-17T19:09:31.673Z,0.87
2018-06-17T19:12:05.622Z,0.90
2018-06-17T19:14:39.443Z,0.63
2018-06-17T19:17:13.570Z,0.83
2018-06-17T19:19:42.247Z,0.90
2018-06-17T19:22:11.099Z,0.90
2018-06-17T19:24:39.830Z,0.77
2018-06-17T19:27:08.614Z,0.87
2018-06-17T19:29:37.318Z,0.90
2018-06-17T19:32:06.205Z,0.80
2018-06-17T19:34:34.883Z,1.00
2018-06-17T19:37:03.674Z,0.90
2018-06-17T19:39:32.446Z,0.70
2018-06-17T19:42:01.187Z,1.13
2018-06-17T19:44:30.042Z,0.70
2018-06-17T19:46:58.749Z,1.03
2018-06-17T19:49:32.766Z,0.90
2018-06-17T19:52:06.774Z,0.70
2018-06-17T19:54:40.819Z,0.83
2018-06-17T19:57:14.966Z,0.80
2018-06-17T20:00:48.330Z,0.90
2018-06-17T20:03:17.434Z,0.80
2018-06-17T20:05:46.167Z,0.80
2018-06-17T20:08:15.118Z,0.70
2018-06-17T20:10:44.045Z,0.80
2018-06-17T20:13:12.831Z,0.40
2018-06-17T20:15:41.585Z,0.40
2018-06-17T20:18:10.389Z,0.50
2018-06-17T20:20:39.181Z,0.57
2018-06-17T20:23:07.911Z,0.50
2018-06-17T20:25:36.702Z,1.00
2018-06-17T20:28:05.518Z,0.60
2018-06-17T20:30:34.280Z,0.57
2018-06-17T20:33:08.181Z,0.80
2018-06-17T20:35:42.181Z,0.70
2018-06-17T20:38:16.342Z,0.50
2018-06-17T20:40:50.281Z,0.50
2018-06-17T20:43:24.194Z,0.70
2018-06-17T20:45:53.226Z,0.50
2018-06-17T20:48:21.901Z,0.60
2018-06-17T20:50:50.649Z,0.77
2018-06-17T20:53:19.507Z,0.60
2018-06-17T20:55:48.234Z,0.73
2018-06-17T20:58:17.814Z,0.60
2018-06-17T21:00:46.489Z,0.70
2018-06-17T21:03:15.222Z,0.63
2018-06-17T21:05:43.893Z,0.73
2018-06-17T21:08:12.593Z,1.10
2018-06-17T21:10:41.560Z,0.60
2018-06-17T21:13:10.378Z,0.63
2018-06-17T21:15:38.769Z,0.70
2018-06-17T21:18:07.685Z,0.60
2018-06-17T21:20:41.671Z,0.83
2018-06-17T21:23:15.409Z,0.77
2018-06-17T21:25:49.409Z,0.70
2018-06-17T21:28:18.334Z,0.70
2018-06-17T21:30:47.108Z,0.70
2018-06-17T21:33:15.845Z,0.60
2018-06-17T21:35:44.560Z,1.00
2018-06-17T21:38:13.362Z,0.70
2018-06-17T21:40:42.042Z,0.60
2018-06-17T21:43:10.834Z,0.63
2018-06-17T21:45:39.458Z,1.00
2018-06-17T21:48:08.206Z,0.60
2018-06-17T21:50:36.889Z,0.70
2018-06-17T21:53:05.613Z,0.50
2018-06-17T21:55:34.426Z,0.60
2018-06-17T21:58:03.129Z,0.63
2018-06-17T22:00:31.790Z,0.57
2018-06-17T22:03:00.507Z,0.67
2018-06-17T22:05:29.241Z,0.70
2018-06-17T22:08:03.417Z,0.43
2018-06-17T22:10:37.351Z,0.50
2018-06-17T22:13:06.193Z,0.60
2018-06-17T22:15:40.269Z,0.80
2018-06-17T22:18:09.094Z,0.67
2018-06-17T22:20:37.839Z,0.87
2018-06-17T22:23:06.624Z,0.50
2018-06-17T22:25:35.422Z,0.60
2018-06-17T22:28:04.181Z,0.90
2018-06-17T22:30:33.006Z,1.00
2018-06-17T22:33:01.850Z,0.80
2018-06-17T22:35:30.717Z,0.50
2018-06-17T22:37:59.164Z,0.50
2018-06-17T22:40:28.058Z,0.80
2018-06-17T22:42:56.794Z,0.70
2018-06-17T22:45:25.494Z,0.50
2018-06-17T22:47:58.692Z,0.80
2018-06-17T22:50:27.906Z,0.60
2018-06-17T22:53:07.671Z,0.90
2018-06-17T22:55:36.430Z,1.07
2018-06-17T22:58:10.387Z,0.60
2018-06-17T23:00:44.602Z,0.60
2018-06-17T23:03:18.642Z,0.67
2018-06-17T23:05:52.650Z,0.70
2018-06-17T23:08:26.654Z,0.60
2018-06-17T23:10:55.314Z,0.57
2018-06-17T23:13:24.046Z,0.50
2018-06-17T23:15:52.756Z,0.60
2018-06-17T23:18:22.300Z,0.70
2018-06-17T23:20:51.005Z,0.50
2018-06-17T23:23:19.734Z,0.60
2018-06-17T23:25:48.161Z,0.50
2018-06-17T23:28:16.994Z,0.57
2018-06-17T23:30:45.815Z,0.47
2018-06-17T23:33:14.565Z,0.57
2018-06-17T23:35:43.941Z,0.40
2018-06-17T23:38:12.650Z,0.30
2018-06-17T23:40:41.373Z,0.40
2018-06-17T23:43:10.114Z,0.50
2018-06-17T23:45:43.129Z,0.40
2018-06-17T23:48:17.145Z,0.60
2018-06-17T23:50:51.185Z,0.40
2018-06-17T23:53:25.039Z,0.60
2018-06-17T23:55:58.954Z,0.80
2018-06-17T23:58:27.678Z,0.50
